sensor_id;sensor_type;location;lat;lon;timestamp;P1;durP1;ratioP1;P2;durP2;ratioP2
21860;SDS011;11095;48.066;8.540;2023-05-07T00:00:46;5.72;;;5.00;;
21860;SDS011;11095;48.066;8.540;2023-05-07T00:03:11;6.95;;;4.97;;
21860;SDS011;11095;48.066;8.540;2023-05-07T00:05:38;5.90;;;5.03;;
21860;SDS011;11095;48.066;8.540;2023-05-07T00:08:04;6.13;;;4.45;;
21860;SDS011;11095;48.066;8.540;2023-05-07T00:10:30;6.05;;;4.55;;
21860;SDS011;11095;48.066;8.540;2023-05-07T00:12:56;5.32;;;4.82;;
21860;SDS011;11095;48.066;8.540;2023-05-07T00:15:21;5.60;;;4.65;;
21860;SDS011;11095;48.066;8.540;2023-05-07T00:17:47;6.00;;;4.63;;
21860;SDS011;11095;48.066;8.540;2023-05-07T00:20:12;7.03;;;5.00;;
21860;SDS011;11095;48.066;8.540;2023-05-07T00:22:38;6.28;;;4.70;;
21860;SDS011;11095;48.066;8.540;2023-05-07T00:25:04;5.75;;;4.65;;
21860;SDS011;11095;48.066;8.540;2023-05-07T00:27:30;7.53;;;5.50;;
21860;SDS011;11095;48.066;8.540;2023-05-07T00:29:56;5.68;;;4.60;;
21860;SDS011;11095;48.066;8.540;2023-05-07T00:32:21;6.53;;;4.93;;
21860;SDS011;11095;48.066;8.540;2023-05-07T00:34:47;6.60;;;4.47;;
21860;SDS011;11095;48.066;8.540;2023-05-07T00:37:13;5.72;;;4.82;;
21860;SDS011;11095;48.066;8.540;2023-05-07T00:39:38;6.93;;;4.63;;
21860;SDS011;11095;48.066;8.540;2023-05-07T00:42:04;7.28;;;4.90;;
21860;SDS011;11095;48.066;8.540;2023-05-07T00:44:30;6.97;;;5.03;;
21860;SDS011;11095;48.066;8.540;2023-05-07T00:46:56;6.90;;;5.35;;
21860;SDS011;11095;48.066;8.540;2023-05-07T00:49:23;5.22;;;4.43;;
21860;SDS011;11095;48.066;8.540;2023-05-07T00:51:58;5.30;;;4.55;;
21860;SDS011;11095;48.066;8.540;2023-05-07T00:54:25;6.28;;;5.10;;
21860;SDS011;11095;48.066;8.540;2023-05-07T00:56:51;5.45;;;4.40;;
21860;SDS011;11095;48.066;8.540;2023-05-07T00:59:17;5.82;;;5.05;;
21860;SDS011;11095;48.066;8.540;2023-05-07T01:01:43;4.90;;;4.40;;
21860;SDS011;11095;48.066;8.540;2023-05-07T01:04:08;6.32;;;4.38;;
21860;SDS011;11095;48.066;8.540;2023-05-07T01:06:34;5.32;;;4.60;;
21860;SDS011;11095;48.066;8.540;2023-05-07T01:09:00;4.60;;;4.20;;
21860;SDS011;11095;48.066;8.540;2023-05-07T01:11:26;5.38;;;4.53;;
21860;SDS011;11095;48.066;8.540;2023-05-07T01:13:52;5.10;;;4.38;;
21860;SDS011;11095;48.066;8.540;2023-05-07T01:16:17;5.10;;;4.60;;
21860;SDS011;11095;48.066;8.540;2023-05-07T01:18:43;5.57;;;4.53;;
21860;SDS011;11095;48.066;8.540;2023-05-07T01:21:10;4.82;;;4.35;;
21860;SDS011;11095;48.066;8.540;2023-05-07T01:23:36;4.88;;;4.22;;
21860;SDS011;11095;48.066;8.540;2023-05-07T01:26:03;5.85;;;4.32;;
21860;SDS011;11095;48.066;8.540;2023-05-07T01:28:28;5.60;;;4.45;;
21860;SDS011;11095;48.066;8.540;2023-05-07T01:30:54;4.80;;;4.30;;
21860;SDS011;11095;48.066;8.540;2023-05-07T01:33:26;5.55;;;4.57;;
21860;SDS011;11095;48.066;8.540;2023-05-07T01:35:54;5.15;;;4.57;;
21860;SDS011;11095;48.066;8.540;2023-05-07T01:38:21;4.88;;;4.43;;
21860;SDS011;11095;48.066;8.540;2023-05-07T01:40:48;6.40;;;4.50;;
21860;SDS011;11095;48.066;8.540;2023-05-07T01:43:14;4.80;;;4.30;;
21860;SDS011;11095;48.066;8.540;2023-05-07T01:45:40;4.53;;;4.13;;
21860;SDS011;11095;48.066;8.540;2023-05-07T01:48:07;4.82;;;4.10;;
21860;SDS011;11095;48.066;8.540;2023-05-07T01:50:34;5.63;;;4.47;;
21860;SDS011;11095;48.066;8.540;2023-05-07T01:53:02;5.15;;;4.65;;
21860;SDS011;11095;48.066;8.540;2023-05-07T01:55:27;4.43;;;4.03;;
21860;SDS011;11095;48.066;8.540;2023-05-07T01:57:53;5.22;;;4.53;;
21860;SDS011;11095;48.066;8.540;2023-05-07T02:00:19;5.50;;;4.57;;
21860;SDS011;11095;48.066;8.540;2023-05-07T02:02:45;6.18;;;4.85;;
21860;SDS011;11095;48.066;8.540;2023-05-07T02:05:10;5.07;;;4.57;;
21860;SDS011;11095;48.066;8.540;2023-05-07T02:07:36;5.10;;;4.60;;
21860;SDS011;11095;48.066;8.540;2023-05-07T02:10:01;6.10;;;4.45;;
21860;SDS011;11095;48.066;8.540;2023-05-07T02:12:28;4.95;;;4.25;;
21860;SDS011;11095;48.066;8.540;2023-05-07T02:14:53;6.00;;;4.47;;
21860;SDS011;11095;48.066;8.540;2023-05-07T02:17:19;5.65;;;4.38;;
21860;SDS011;11095;48.066;8.540;2023-05-07T02:19:45;6.03;;;4.93;;
21860;SDS011;11095;48.066;8.540;2023-05-07T02:22:10;5.43;;;4.47;;
21860;SDS011;11095;48.066;8.540;2023-05-07T02:24:36;9.30;;;4.68;;
21860;SDS011;11095;48.066;8.540;2023-05-07T02:27:02;6.53;;;4.70;;
21860;SDS011;11095;48.066;8.540;2023-05-07T02:29:28;4.95;;;4.55;;
21860;SDS011;11095;48.066;8.540;2023-05-07T02:31:54;5.57;;;4.90;;
21860;SDS011;11095;48.066;8.540;2023-05-07T02:34:20;6.60;;;4.60;;
21860;SDS011;11095;48.066;8.540;2023-05-07T02:36:46;6.13;;;4.78;;
21860;SDS011;11095;48.066;8.540;2023-05-07T02:39:12;5.07;;;4.47;;
21860;SDS011;11095;48.066;8.540;2023-05-07T02:41:38;8.45;;;4.88;;
21860;SDS011;11095;48.066;8.540;2023-05-07T02:44:04;4.97;;;4.47;;
21860;SDS011;11095;48.066;8.540;2023-05-07T02:46:30;4.97;;;4.47;;
21860;SDS011;11095;48.066;8.540;2023-05-07T02:48:56;6.68;;;5.03;;
21860;SDS011;11095;48.066;8.540;2023-05-07T02:51:22;5.97;;;4.78;;
21860;SDS011;11095;48.066;8.540;2023-05-07T02:53:48;5.80;;;4.72;;
21860;SDS011;11095;48.066;8.540;2023-05-07T02:56:14;6.80;;;4.43;;
21860;SDS011;11095;48.066;8.540;2023-05-07T02:58:39;6.95;;;4.55;;
21860;SDS011;11095;48.066;8.540;2023-05-07T03:01:07;5.70;;;4.90;;
21860;SDS011;11095;48.066;8.540;2023-05-07T03:03:32;6.68;;;4.80;;
21860;SDS011;11095;48.066;8.540;2023-05-07T03:05:58;5.53;;;5.03;;
21860;SDS011;11095;48.066;8.540;2023-05-07T03:08:24;5.22;;;4.72;;
21860;SDS011;11095;48.066;8.540;2023-05-07T03:10:50;6.35;;;4.63;;
21860;SDS011;11095;48.066;8.540;2023-05-07T03:13:16;4.60;;;3.90;;
21860;SDS011;11095;48.066;8.540;2023-05-07T03:15:42;6.13;;;4.53;;
21860;SDS011;11095;48.066;8.540;2023-05-07T03:18:07;5.00;;;4.40;;
21860;SDS011;11095;48.066;8.540;2023-05-07T03:20:33;5.38;;;4.88;;
21860;SDS011;11095;48.066;8.540;2023-05-07T03:22:59;5.28;;;4.47;;
21860;SDS011;11095;48.066;8.540;2023-05-07T03:25:25;4.50;;;4.10;;
21860;SDS011;11095;48.066;8.540;2023-05-07T03:27:51;5.28;;;4.78;;
21860;SDS011;11095;48.066;8.540;2023-05-07T03:30:16;5.07;;;4.38;;
21860;SDS011;11095;48.066;8.540;2023-05-07T03:32:42;4.72;;;4.15;;
21860;SDS011;11095;48.066;8.540;2023-05-07T03:35:08;4.88;;;4.38;;
21860;SDS011;11095;48.066;8.540;2023-05-07T03:37:33;6.00;;;4.57;;
21860;SDS011;11095;48.066;8.540;2023-05-07T03:39:59;5.13;;;4.63;;
21860;SDS011;11095;48.066;8.540;2023-05-07T03:42:25;5.30;;;4.70;;
21860;SDS011;11095;48.066;8.540;2023-05-07T03:44:51;6.18;;;4.63;;
21860;SDS011;11095;48.066;8.540;2023-05-07T03:47:16;5.22;;;4.30;;
21860;SDS011;11095;48.066;8.540;2023-05-07T03:49:42;5.53;;;4.60;;
21860;SDS011;11095;48.066;8.540;2023-05-07T03:52:07;5.05;;;4.55;;
21860;SDS011;11095;48.066;8.540;2023-05-07T03:54:33;6.07;;;4.53;;
21860;SDS011;11095;48.066;8.540;2023-05-07T03:56:59;4.82;;;4.32;;
21860;SDS011;11095;48.066;8.540;2023-05-07T03:59:24;7.20;;;5.40;;
21860;SDS011;11095;48.066;8.540;2023-05-07T04:01:50;6.75;;;4.82;;
21860;SDS011;11095;48.066;8.540;2023-05-07T04:04:16;6.05;;;5.25;;
21860;SDS011;11095;48.066;8.540;2023-05-07T04:06:42;6.10;;;5.00;;
21860;SDS011;11095;48.066;8.540;2023-05-07T04:09:07;6.65;;;5.53;;
21860;SDS011;11095;48.066;8.540;2023-05-07T04:11:33;6.30;;;5.22;;
21860;SDS011;11095;48.066;8.540;2023-05-07T04:14:00;6.20;;;5.60;;
21860;SDS011;11095;48.066;8.540;2023-05-07T04:16:25;5.63;;;5.10;;
21860;SDS011;11095;48.066;8.540;2023-05-07T04:18:51;7.68;;;6.38;;
21860;SDS011;11095;48.066;8.540;2023-05-07T04:21:17;6.90;;;5.90;;
21860;SDS011;11095;48.066;8.540;2023-05-07T04:23:44;6.40;;;5.80;;
21860;SDS011;11095;48.066;8.540;2023-05-07T04:26:10;6.93;;;5.22;;
21860;SDS011;11095;48.066;8.540;2023-05-07T04:28:36;5.25;;;4.68;;
21860;SDS011;11095;48.066;8.540;2023-05-07T04:31:02;4.53;;;3.67;;
21860;SDS011;11095;48.066;8.540;2023-05-07T04:33:27;4.35;;;3.58;;
21860;SDS011;11095;48.066;8.540;2023-05-07T04:35:53;4.70;;;3.40;;
21860;SDS011;11095;48.066;8.540;2023-05-07T04:38:18;4.88;;;3.22;;
21860;SDS011;11095;48.066;8.540;2023-05-07T04:40:44;4.00;;;3.58;;
21860;SDS011;11095;48.066;8.540;2023-05-07T04:43:11;4.05;;;3.40;;
21860;SDS011;11095;48.066;8.540;2023-05-07T04:45:38;4.68;;;3.20;;
21860;SDS011;11095;48.066;8.540;2023-05-07T04:48:06;3.70;;;3.38;;
21860;SDS011;11095;48.066;8.540;2023-05-07T04:50:32;3.80;;;3.33;;
21860;SDS011;11095;48.066;8.540;2023-05-07T04:52:58;3.80;;;3.40;;
21860;SDS011;11095;48.066;8.540;2023-05-07T04:55:23;3.50;;;3.20;;
21860;SDS011;11095;48.066;8.540;2023-05-07T04:57:49;4.65;;;3.83;;
21860;SDS011;11095;48.066;8.540;2023-05-07T05:00:15;3.83;;;3.42;;
21860;SDS011;11095;48.066;8.540;2023-05-07T05:02:41;3.50;;;3.20;;
21860;SDS011;11095;48.066;8.540;2023-05-07T05:05:07;3.55;;;3.03;;
21860;SDS011;11095;48.066;8.540;2023-05-07T05:07:33;3.75;;;2.70;;
21860;SDS011;11095;48.066;8.540;2023-05-07T05:09:58;4.70;;;3.15;;
21860;SDS011;11095;48.066;8.540;2023-05-07T05:12:24;3.38;;;2.47;;
21860;SDS011;11095;48.066;8.540;2023-05-07T05:14:50;3.10;;;2.22;;
21860;SDS011;11095;48.066;8.540;2023-05-07T05:17:16;4.53;;;2.50;;
21860;SDS011;11095;48.066;8.540;2023-05-07T05:19:41;2.58;;;2.20;;
21860;SDS011;11095;48.066;8.540;2023-05-07T05:22:07;4.22;;;2.30;;
21860;SDS011;11095;48.066;8.540;2023-05-07T05:24:32;2.53;;;2.08;;
21860;SDS011;11095;48.066;8.540;2023-05-07T05:26:58;2.75;;;2.30;;
21860;SDS011;11095;48.066;8.540;2023-05-07T05:29:27;2.60;;;2.35;;
21860;SDS011;11095;48.066;8.540;2023-05-07T05:31:53;2.70;;;2.10;;
21860;SDS011;11095;48.066;8.540;2023-05-07T05:34:18;4.45;;;1.90;;
21860;SDS011;11095;48.066;8.540;2023-05-07T05:36:45;3.15;;;2.00;;
21860;SDS011;11095;48.066;8.540;2023-05-07T05:39:11;2.17;;;1.65;;
21860;SDS011;11095;48.066;8.540;2023-05-07T05:41:37;2.40;;;1.83;;
21860;SDS011;11095;48.066;8.540;2023-05-07T05:44:03;2.55;;;1.70;;
21860;SDS011;11095;48.066;8.540;2023-05-07T05:46:29;3.95;;;2.03;;
21860;SDS011;11095;48.066;8.540;2023-05-07T05:48:54;2.75;;;2.13;;
21860;SDS011;11095;48.066;8.540;2023-05-07T05:51:21;2.25;;;2.05;;
21860;SDS011;11095;48.066;8.540;2023-05-07T05:53:46;2.30;;;1.73;;
21860;SDS011;11095;48.066;8.540;2023-05-07T05:56:12;1.65;;;1.55;;
21860;SDS011;11095;48.066;8.540;2023-05-07T05:58:38;2.63;;;2.10;;
21860;SDS011;11095;48.066;8.540;2023-05-07T06:01:03;3.28;;;2.20;;
21860;SDS011;11095;48.066;8.540;2023-05-07T06:03:30;2.90;;;2.00;;
21860;SDS011;11095;48.066;8.540;2023-05-07T06:05:57;3.65;;;2.08;;
21860;SDS011;11095;48.066;8.540;2023-05-07T06:08:23;2.63;;;2.30;;
21860;SDS011;11095;48.066;8.540;2023-05-07T06:10:48;2.95;;;2.13;;
21860;SDS011;11095;48.066;8.540;2023-05-07T06:13:14;2.92;;;2.20;;
21860;SDS011;11095;48.066;8.540;2023-05-07T06:15:40;3.15;;;2.20;;
21860;SDS011;11095;48.066;8.540;2023-05-07T06:18:05;2.78;;;2.13;;
21860;SDS011;11095;48.066;8.540;2023-05-07T06:20:31;2.40;;;2.20;;
21860;SDS011;11095;48.066;8.540;2023-05-07T06:22:57;3.58;;;2.28;;
21860;SDS011;11095;48.066;8.540;2023-05-07T06:25:22;4.13;;;2.42;;
21860;SDS011;11095;48.066;8.540;2023-05-07T06:27:48;3.60;;;2.28;;
21860;SDS011;11095;48.066;8.540;2023-05-07T06:30:14;2.65;;;2.20;;
21860;SDS011;11095;48.066;8.540;2023-05-07T06:32:40;2.80;;;2.10;;
21860;SDS011;11095;48.066;8.540;2023-05-07T06:35:06;3.25;;;1.92;;
21860;SDS011;11095;48.066;8.540;2023-05-07T06:37:32;2.75;;;2.25;;
21860;SDS011;11095;48.066;8.540;2023-05-07T06:39:57;3.85;;;2.40;;
21860;SDS011;11095;48.066;8.540;2023-05-07T06:42:23;3.33;;;2.13;;
21860;SDS011;11095;48.066;8.540;2023-05-07T06:44:48;2.70;;;1.83;;
21860;SDS011;11095;48.066;8.540;2023-05-07T06:47:14;2.33;;;2.13;;
21860;SDS011;11095;48.066;8.540;2023-05-07T06:49:40;4.22;;;2.53;;
21860;SDS011;11095;48.066;8.540;2023-05-07T06:52:05;3.90;;;2.42;;
21860;SDS011;11095;48.066;8.540;2023-05-07T06:54:31;3.15;;;2.75;;
21860;SDS011;11095;48.066;8.540;2023-05-07T06:56:56;3.17;;;2.10;;
21860;SDS011;11095;48.066;8.540;2023-05-07T06:59:23;2.65;;;2.22;;
21860;SDS011;11095;48.066;8.540;2023-05-07T07:01:49;4.20;;;2.30;;
21860;SDS011;11095;48.066;8.540;2023-05-07T07:04:14;2.45;;;2.00;;
21860;SDS011;11095;48.066;8.540;2023-05-07T07:06:40;2.70;;;2.10;;
21860;SDS011;11095;48.066;8.540;2023-05-07T07:09:06;2.53;;;2.10;;
21860;SDS011;11095;48.066;8.540;2023-05-07T07:11:32;2.53;;;1.88;;
21860;SDS011;11095;48.066;8.540;2023-05-07T07:13:57;1.90;;;1.80;;
21860;SDS011;11095;48.066;8.540;2023-05-07T07:16:24;2.17;;;1.75;;
21860;SDS011;11095;48.066;8.540;2023-05-07T07:18:49;2.15;;;1.90;;
21860;SDS011;11095;48.066;8.540;2023-05-07T07:21:15;2.22;;;1.80;;
21860;SDS011;11095;48.066;8.540;2023-05-07T07:23:41;2.28;;;1.85;;
21860;SDS011;11095;48.066;8.540;2023-05-07T07:26:07;2.22;;;1.98;;
21860;SDS011;11095;48.066;8.540;2023-05-07T07:28:32;4.15;;;2.17;;
21860;SDS011;11095;48.066;8.540;2023-05-07T07:30:58;2.60;;;2.00;;
21860;SDS011;11095;48.066;8.540;2023-05-07T07:33:24;2.53;;;1.90;;
21860;SDS011;11095;48.066;8.540;2023-05-07T07:35:49;2.20;;;2.00;;
21860;SDS011;11095;48.066;8.540;2023-05-07T07:38:15;2.42;;;1.70;;
21860;SDS011;11095;48.066;8.540;2023-05-07T07:40:40;2.30;;;1.67;;
21860;SDS011;11095;48.066;8.540;2023-05-07T07:43:06;2.97;;;2.40;;
21860;SDS011;11095;48.066;8.540;2023-05-07T07:45:32;3.47;;;2.40;;
21860;SDS011;11095;48.066;8.540;2023-05-07T07:47:58;4.00;;;2.72;;
21860;SDS011;11095;48.066;8.540;2023-05-07T07:50:23;2.30;;;2.03;;
21860;SDS011;11095;48.066;8.540;2023-05-07T07:52:49;4.25;;;2.55;;
21860;SDS011;11095;48.066;8.540;2023-05-07T07:55:14;2.75;;;2.25;;
21860;SDS011;11095;48.066;8.540;2023-05-07T07:57:46;2.47;;;2.10;;
21860;SDS011;11095;48.066;8.540;2023-05-07T08:00:11;2.53;;;2.03;;
21860;SDS011;11095;48.066;8.540;2023-05-07T08:02:37;1.92;;;1.73;;
21860;SDS011;11095;48.066;8.540;2023-05-07T08:05:03;1.98;;;1.80;;
21860;SDS011;11095;48.066;8.540;2023-05-07T08:07:29;2.10;;;1.90;;
21860;SDS011;11095;48.066;8.540;2023-05-07T08:09:55;2.20;;;1.80;;
21860;SDS011;11095;48.066;8.540;2023-05-07T08:12:21;2.78;;;2.00;;
21860;SDS011;11095;48.066;8.540;2023-05-07T08:14:46;3.10;;;2.20;;
21860;SDS011;11095;48.066;8.540;2023-05-07T08:17:12;2.97;;;2.05;;
21860;SDS011;11095;48.066;8.540;2023-05-07T08:19:40;2.57;;;1.80;;
21860;SDS011;11095;48.066;8.540;2023-05-07T08:22:06;2.20;;;2.00;;
21860;SDS011;11095;48.066;8.540;2023-05-07T08:24:32;3.10;;;1.65;;
21860;SDS011;11095;48.066;8.540;2023-05-07T08:26:58;4.13;;;1.83;;
21860;SDS011;11095;48.066;8.540;2023-05-07T08:29:23;2.50;;;2.00;;
21860;SDS011;11095;48.066;8.540;2023-05-07T08:31:49;3.53;;;2.03;;
21860;SDS011;11095;48.066;8.540;2023-05-07T08:34:15;3.13;;;1.92;;
21860;SDS011;11095;48.066;8.540;2023-05-07T08:36:40;2.88;;;2.15;;
21860;SDS011;11095;48.066;8.540;2023-05-07T08:39:07;2.67;;;1.95;;
21860;SDS011;11095;48.066;8.540;2023-05-07T08:41:32;2.10;;;1.75;;
21860;SDS011;11095;48.066;8.540;2023-05-07T08:43:58;3.22;;;1.90;;
21860;SDS011;11095;48.066;8.540;2023-05-07T08:46:26;2.05;;;1.45;;
21860;SDS011;11095;48.066;8.540;2023-05-07T08:48:56;2.78;;;1.40;;
21860;SDS011;11095;48.066;8.540;2023-05-07T08:51:22;1.65;;;1.42;;
21860;SDS011;11095;48.066;8.540;2023-05-07T08:53:48;2.10;;;1.67;;
21860;SDS011;11095;48.066;8.540;2023-05-07T08:56:15;2.53;;;1.83;;
21860;SDS011;11095;48.066;8.540;2023-05-07T08:58:44;2.05;;;1.60;;
21860;SDS011;11095;48.066;8.540;2023-05-07T09:01:12;3.67;;;1.60;;
21860;SDS011;11095;48.066;8.540;2023-05-07T09:03:39;2.08;;;1.88;;
21860;SDS011;11095;48.066;8.540;2023-05-07T09:06:06;2.58;;;1.85;;
21860;SDS011;11095;48.066;8.540;2023-05-07T09:08:32;2.65;;;1.40;;
21860;SDS011;11095;48.066;8.540;2023-05-07T09:10:59;2.28;;;1.80;;
21860;SDS011;11095;48.066;8.540;2023-05-07T09:13:25;3.13;;;1.95;;
21860;SDS011;11095;48.066;8.540;2023-05-07T09:15:52;2.72;;;2.20;;
21860;SDS011;11095;48.066;8.540;2023-05-07T09:18:18;2.40;;;2.20;;
21860;SDS011;11095;48.066;8.540;2023-05-07T09:20:43;2.20;;;2.00;;
21860;SDS011;11095;48.066;8.540;2023-05-07T09:23:09;3.08;;;2.00;;
21860;SDS011;11095;48.066;8.540;2023-05-07T09:25:35;2.72;;;1.98;;
21860;SDS011;11095;48.066;8.540;2023-05-07T09:28:02;3.03;;;2.08;;
21860;SDS011;11095;48.066;8.540;2023-05-07T09:30:29;3.67;;;2.20;;
21860;SDS011;11095;48.066;8.540;2023-05-07T09:32:57;3.63;;;1.80;;
21860;SDS011;11095;48.066;8.540;2023-05-07T09:35:24;3.22;;;2.10;;
21860;SDS011;11095;48.066;8.540;2023-05-07T09:37:55;3.45;;;2.10;;
21860;SDS011;11095;48.066;8.540;2023-05-07T09:40:25;2.03;;;1.80;;
21860;SDS011;11095;48.066;8.540;2023-05-07T09:42:52;2.83;;;2.00;;
21860;SDS011;11095;48.066;8.540;2023-05-07T09:45:22;2.22;;;1.90;;
21860;SDS011;11095;48.066;8.540;2023-05-07T09:47:56;2.58;;;2.00;;
21860;SDS011;11095;48.066;8.540;2023-05-07T09:50:26;3.80;;;1.92;;
21860;SDS011;11095;48.066;8.540;2023-05-07T09:53:01;2.47;;;1.85;;
21860;SDS011;11095;48.066;8.540;2023-05-07T09:55:26;1.80;;;1.60;;
21860;SDS011;11095;48.066;8.540;2023-05-07T09:57:53;1.67;;;1.58;;
21860;SDS011;11095;48.066;8.540;2023-05-07T10:00:20;2.80;;;1.80;;
21860;SDS011;11095;48.066;8.540;2023-05-07T10:02:48;2.00;;;1.80;;
21860;SDS011;11095;48.066;8.540;2023-05-07T10:07:43;2.22;;;1.98;;
21860;SDS011;11095;48.066;8.540;2023-05-07T10:10:09;2.35;;;1.85;;
21860;SDS011;11095;48.066;8.540;2023-05-07T10:12:36;2.03;;;1.70;;
21860;SDS011;11095;48.066;8.540;2023-05-07T10:15:08;1.92;;;1.67;;
21860;SDS011;11095;48.066;8.540;2023-05-07T10:17:36;1.92;;;1.75;;
21860;SDS011;11095;48.066;8.540;2023-05-07T10:20:05;2.47;;;1.73;;
21860;SDS011;11095;48.066;8.540;2023-05-07T10:22:33;3.92;;;2.80;;
21860;SDS011;11095;48.066;8.540;2023-05-07T10:25:03;3.40;;;2.50;;
21860;SDS011;11095;48.066;8.540;2023-05-07T10:27:39;2.85;;;1.75;;
21860;SDS011;11095;48.066;8.540;2023-05-07T10:30:08;2.72;;;1.75;;
21860;SDS011;11095;48.066;8.540;2023-05-07T10:32:49;4.72;;;3.80;;
21860;SDS011;11095;48.066;8.540;2023-05-07T10:35:17;3.63;;;1.90;;
21860;SDS011;11095;48.066;8.540;2023-05-07T10:37:51;4.93;;;1.75;;
21860;SDS011;11095;48.066;8.540;2023-05-07T10:40:17;2.60;;;1.67;;
21860;SDS011;11095;48.066;8.540;2023-05-07T10:42:58;2.67;;;2.00;;
21860;SDS011;11095;48.066;8.540;2023-05-07T10:45:30;2.65;;;2.10;;
21860;SDS011;11095;48.066;8.540;2023-05-07T10:50:41;3.38;;;2.70;;
21860;SDS011;11095;48.066;8.540;2023-05-07T10:55:47;4.40;;;2.85;;
21860;SDS011;11095;48.066;8.540;2023-05-07T11:01:01;6.28;;;3.50;;
21860;SDS011;11095;48.066;8.540;2023-05-07T11:03:28;7.70;;;4.60;;
21860;SDS011;11095;48.066;8.540;2023-05-07T11:08:56;3.72;;;3.15;;
21860;SDS011;11095;48.066;8.540;2023-05-07T11:15:01;6.22;;;3.70;;
21860;SDS011;11095;48.066;8.540;2023-05-07T11:17:08;5.00;;;3.30;;
21860;SDS011;11095;48.066;8.540;2023-05-07T11:19:50;3.35;;;2.70;;
21860;SDS011;11095;48.066;8.540;2023-05-07T11:25:01;4.32;;;3.45;;
21860;SDS011;11095;48.066;8.540;2023-05-07T11:27:28;4.60;;;3.33;;
21860;SDS011;11095;48.066;8.540;2023-05-07T11:29:54;4.85;;;2.50;;
21860;SDS011;11095;48.066;8.540;2023-05-07T11:32:24;3.53;;;2.50;;
21860;SDS011;11095;48.066;8.540;2023-05-07T11:34:53;2.90;;;2.40;;
21860;SDS011;11095;48.066;8.540;2023-05-07T11:37:20;4.72;;;2.40;;
21860;SDS011;11095;48.066;8.540;2023-05-07T11:39:47;4.93;;;2.90;;
21860;SDS011;11095;48.066;8.540;2023-05-07T11:42:32;4.82;;;2.45;;
21860;SDS011;11095;48.066;8.540;2023-05-07T11:44:58;4.15;;;2.35;;
21860;SDS011;11095;48.066;8.540;2023-05-07T11:47:25;5.03;;;2.90;;
21860;SDS011;11095;48.066;8.540;2023-05-07T11:49:51;4.60;;;2.90;;
21860;SDS011;11095;48.066;8.540;2023-05-07T11:52:18;6.07;;;3.13;;
21860;SDS011;11095;48.066;8.540;2023-05-07T11:54:51;5.20;;;3.30;;
21860;SDS011;11095;48.066;8.540;2023-05-07T11:57:18;3.65;;;2.72;;
21860;SDS011;11095;48.066;8.540;2023-05-07T11:59:44;4.97;;;2.58;;
21860;SDS011;11095;48.066;8.540;2023-05-07T12:02:13;3.28;;;2.30;;
21860;SDS011;11095;48.066;8.540;2023-05-07T12:04:42;2.50;;;2.10;;
21860;SDS011;11095;48.066;8.540;2023-05-07T12:07:12;3.00;;;2.20;;
21860;SDS011;11095;48.066;8.540;2023-05-07T12:09:41;3.90;;;1.95;;
21860;SDS011;11095;48.066;8.540;2023-05-07T12:12:07;2.05;;;1.80;;
21860;SDS011;11095;48.066;8.540;2023-05-07T12:14:37;2.67;;;2.10;;
21860;SDS011;11095;48.066;8.540;2023-05-07T12:17:07;3.30;;;2.33;;
21860;SDS011;11095;48.066;8.540;2023-05-07T12:19:33;2.83;;;2.30;;
21860;SDS011;11095;48.066;8.540;2023-05-07T12:22:00;2.35;;;2.08;;
21860;SDS011;11095;48.066;8.540;2023-05-07T12:24:27;3.97;;;2.83;;
21860;SDS011;11095;48.066;8.540;2023-05-07T12:26:53;2.85;;;2.28;;
21860;SDS011;11095;48.066;8.540;2023-05-07T12:29:22;3.33;;;2.42;;
21860;SDS011;11095;48.066;8.540;2023-05-07T12:31:49;3.28;;;2.22;;
21860;SDS011;11095;48.066;8.540;2023-05-07T12:34:15;5.47;;;2.75;;
21860;SDS011;11095;48.066;8.540;2023-05-07T12:36:41;3.00;;;2.20;;
21860;SDS011;11095;48.066;8.540;2023-05-07T12:39:07;3.08;;;2.40;;
21860;SDS011;11095;48.066;8.540;2023-05-07T12:44:19;3.60;;;2.30;;
21860;SDS011;11095;48.066;8.540;2023-05-07T12:46:47;4.43;;;2.90;;
21860;SDS011;11095;48.066;8.540;2023-05-07T12:49:13;6.03;;;3.13;;
21860;SDS011;11095;48.066;8.540;2023-05-07T12:51:38;3.58;;;2.92;;
21860;SDS011;11095;48.066;8.540;2023-05-07T12:54:04;4.25;;;2.42;;
21860;SDS011;11095;48.066;8.540;2023-05-07T12:56:35;3.33;;;2.47;;
21860;SDS011;11095;48.066;8.540;2023-05-07T12:59:01;3.53;;;2.50;;
21860;SDS011;11095;48.066;8.540;2023-05-07T13:01:30;2.85;;;2.40;;
21860;SDS011;11095;48.066;8.540;2023-05-07T13:04:02;3.40;;;2.40;;
21860;SDS011;11095;48.066;8.540;2023-05-07T13:06:29;2.20;;;2.00;;
21860;SDS011;11095;48.066;8.540;2023-05-07T13:08:56;2.40;;;2.20;;
21860;SDS011;11095;48.066;8.540;2023-05-07T13:11:21;4.22;;;3.05;;
21860;SDS011;11095;48.066;8.540;2023-05-07T13:13:48;3.55;;;2.63;;
21860;SDS011;11095;48.066;8.540;2023-05-07T13:16:13;2.88;;;2.30;;
21860;SDS011;11095;48.066;8.540;2023-05-07T13:18:39;4.35;;;2.70;;
21860;SDS011;11095;48.066;8.540;2023-05-07T13:21:06;3.65;;;2.67;;
21860;SDS011;11095;48.066;8.540;2023-05-07T13:23:31;5.38;;;2.90;;
21860;SDS011;11095;48.066;8.540;2023-05-07T13:25:57;5.03;;;3.20;;
21860;SDS011;11095;48.066;8.540;2023-05-07T13:28:23;3.88;;;3.30;;
21860;SDS011;11095;48.066;8.540;2023-05-07T13:30:49;4.43;;;3.25;;
21860;SDS011;11095;48.066;8.540;2023-05-07T13:33:16;2.88;;;2.50;;
21860;SDS011;11095;48.066;8.540;2023-05-07T13:35:42;3.67;;;3.20;;
21860;SDS011;11095;48.066;8.540;2023-05-07T13:38:08;4.13;;;3.20;;
21860;SDS011;11095;48.066;8.540;2023-05-07T13:40:33;4.30;;;3.63;;
21860;SDS011;11095;48.066;8.540;2023-05-07T13:42:59;4.00;;;3.10;;
21860;SDS011;11095;48.066;8.540;2023-05-07T13:45:28;6.05;;;3.83;;
21860;SDS011;11095;48.066;8.540;2023-05-07T13:47:55;5.30;;;3.70;;
21860;SDS011;11095;48.066;8.540;2023-05-07T13:50:21;4.55;;;3.70;;
21860;SDS011;11095;48.066;8.540;2023-05-07T13:52:47;6.32;;;3.60;;
21860;SDS011;11095;48.066;8.540;2023-05-07T13:55:16;4.38;;;3.63;;
21860;SDS011;11095;48.066;8.540;2023-05-07T13:57:45;4.97;;;3.15;;
21860;SDS011;11095;48.066;8.540;2023-05-07T14:00:11;3.50;;;3.10;;
21860;SDS011;11095;48.066;8.540;2023-05-07T14:02:38;3.60;;;2.88;;
21860;SDS011;11095;48.066;8.540;2023-05-07T14:05:04;4.55;;;2.65;;
21860;SDS011;11095;48.066;8.540;2023-05-07T14:07:29;2.95;;;2.50;;
21860;SDS011;11095;48.066;8.540;2023-05-07T14:09:56;3.67;;;2.30;;
21860;SDS011;11095;48.066;8.540;2023-05-07T14:12:22;2.67;;;2.38;;
21860;SDS011;11095;48.066;8.540;2023-05-07T14:14:47;2.58;;;2.20;;
21860;SDS011;11095;48.066;8.540;2023-05-07T14:17:15;3.50;;;1.90;;
21860;SDS011;11095;48.066;8.540;2023-05-07T14:19:42;3.10;;;1.88;;
21860;SDS011;11095;48.066;8.540;2023-05-07T14:22:07;2.55;;;2.33;;
21860;SDS011;11095;48.066;8.540;2023-05-07T14:24:33;4.38;;;1.90;;
21860;SDS011;11095;48.066;8.540;2023-05-07T14:26:59;1.75;;;1.65;;
21860;SDS011;11095;48.066;8.540;2023-05-07T14:29:25;2.55;;;1.50;;
21860;SDS011;11095;48.066;8.540;2023-05-07T14:31:50;2.45;;;1.52;;
21860;SDS011;11095;48.066;8.540;2023-05-07T14:34:16;1.90;;;1.20;;
21860;SDS011;11095;48.066;8.540;2023-05-07T14:36:41;1.60;;;1.20;;
21860;SDS011;11095;48.066;8.540;2023-05-07T14:39:08;1.63;;;1.10;;
21860;SDS011;11095;48.066;8.540;2023-05-07T14:41:34;1.70;;;1.20;;
21860;SDS011;11095;48.066;8.540;2023-05-07T14:44:00;2.47;;;1.10;;
21860;SDS011;11095;48.066;8.540;2023-05-07T14:46:26;2.13;;;1.30;;
21860;SDS011;11095;48.066;8.540;2023-05-07T14:48:52;2.00;;;1.40;;
21860;SDS011;11095;48.066;8.540;2023-05-07T14:51:19;2.88;;;1.50;;
21860;SDS011;11095;48.066;8.540;2023-05-07T14:53:45;1.70;;;1.50;;
21860;SDS011;11095;48.066;8.540;2023-05-07T14:56:11;2.47;;;1.80;;
21860;SDS011;11095;48.066;8.540;2023-05-07T14:58:37;3.03;;;1.90;;
21860;SDS011;11095;48.066;8.540;2023-05-07T15:01:03;2.90;;;2.00;;
21860;SDS011;11095;48.066;8.540;2023-05-07T15:03:28;2.50;;;2.10;;
21860;SDS011;11095;48.066;8.540;2023-05-07T15:05:55;3.08;;;2.50;;